SBSP/CGH METAR and TAF weather

Enter ICAO airport designator
Station Type Date Time Source
SBSP METAR 2019/07/18 11:00 UTC NOAA

SBSP 181100Z 07006KT 040V120 CAVOK 11/08 Q1028


Station Type Date Time Source
SBSP Decoded METAR 2019/07/18 11:00 UTC NOAA

Sao Paulo/Congonhas Aeroporto, Brazil (SBSP) 23-37S 046-39W 802M
Jul 18, 2019 - 07:00 AM EDT / 2019.07.18 1100 UTC
Wind: from the ENE (070 degrees) at 7 MPH (6 KT) (direction variable):0
Visibility: greater than 7 mile(s):0
Temperature: 51 F (11 C)
Dew Point: 46 F (8 C)
Relative Humidity: 81%
Pressure (altimeter): 30.36 in. Hg (1028 hPa)
ob: SBSP 181100Z 07006KT 040V120 CAVOK 11/08 Q1028
cycle: 11

Station Type Date Time Source
SBSP TAF 2019/07/18 12:33 UTC NOAA

TAF TAF SBSP 180900Z 1812/1824 08010KT CAVOK TN13/1812Z TX18/1817Z
BECMG 1814/1816 9999 SCT020
BECMG 1816/1818 14008KT
BECMG 1820/1822 8000 SCT012
RMK PGH

Example: see airport list